ADDS METAR Data INFO
IDs: Format: Raw Decoded Include TAF

Data at: 0718 UTC 19 Oct 2017

KCMA 190655Z AUTO 02003KT 7SM CLR 16/13 A2989 RMK AO2 SLP131 T01560128
KCMA 190555Z AUTO 05003KT 7SM CLR 17/13 A2989 RMK AO2 SLP131 T01670133 10222 20167 53002
KCMA 190455Z AUTO 00000KT 8SM CLR 18/14 A2989 RMK AO2 SLP131 T01780139
KCMA 190355Z AUTO 00000KT 7SM CLR 18/14 A2988 RMK AO2 SLP127 T01830139
KCMA 190255Z AUTO 14003KT 8SM CLR 18/14 A2989 RMK AO2 SLP129 T01830144 53002
KCMA 190155Z 25005KT 8SM CLR 19/14 A2989 RMK AO2 SLP129 T01940144
KCMA 190055Z 22005KT 7SM CLR 21/15 A2987 RMK AO2 SLP124 T02110150
KCMA 182355Z 24007KT 7SM CLR 22/16 A2988 RMK AO2 SLP127 T02220156 10272 20222 56014
KCMA 182255Z 20006KT 8SM CLR 23/16 A2990 RMK AO2 SLP131 T02330156
KCMA 182155Z 23005KT 8SM CLR 24/16 A2990 RMK AO2 SLP134 T02390156
KCMA 182055Z 22007KT 8SM CLR 24/16 A2992 RMK AO2 SLP141 T02390156 58011
KCMA 181955Z 26008KT 8SM CLR 25/15 A2995 RMK AO2 SLP150 T02500150
KCMA 181855Z 24007KT 9SM CLR 27/14 A2995 RMK AO2 SLP149 T02670144
KCMA 181755Z 21004KT 8SM CLR 25/16 A2996 RMK AO2 SLP152 6//// T02500161 10250 20150 51007
KCMA 181655Z 24/13 A2996 RMK AO2 SLP152 T02440133 $
KCMA 181555Z 07003KT 7SM CLR 20/12 A2995 RMK AO2 SLP149 T02000117
KCMA 181455Z 00000KT 8SM CLR 17/11 A2994 RMK AO2 SLP145 T01720111 53014
KCMA 181355Z 00000KT 9SM CLR 15/11 A2991 RMK AO2 SLP138 T01500106
KCMA 181255Z AUTO 06004KT 9SM CLR 16/11 A2991 RMK AO2 SLP138 T01610106
KCMA 181155Z AUTO 05004KT 10SM CLR 18/11 A2990 RMK AO2 SLP132 T01830111 10200 20172 56007
KCMA 181055Z AUTO 07005KT 10SM CLR 18/11 A2990 RMK AO2 SLP133 T01780111
KCMA 180955Z AUTO 07005KT 10SM CLR 18/12 A2991 RMK AO2 SLP135 T01830122
KCMA 180855Z AUTO 05006KT 9SM CLR 17/12 A2992 RMK AO2 SLP139 T01720122 53002
KCMA 180755Z AUTO 00000KT 9SM CLR 19/13 A2991 RMK AO2 SLP135 T01890128 403060144
KCMA 180655Z AUTO 00000KT 8SM CLR 19/13 A2991 RMK AO2 SLP134 T01940133
KCMA 180555Z AUTO 00000KT 9SM CLR 19/13 A2991 RMK AO2 SLP135 T01890128 10256 20183 53001
KCMA 180455Z AUTO 30004KT 9SM CLR 19/13 A2991 RMK AO2 SLP134 T01940133
KCMA 180355Z AUTO 00000KT 9SM CLR 21/13 A2989 RMK AO2 SLP131 T02060133
KCMA 180255Z 08003KT 10SM CLR 21/13 A2991 RMK AO2 SLP135 T02110133 56004
KCMA 180155Z 00000KT 10SM CLR 23/14 A2991 RMK AO2 SLP135 T02280139
KCMA 180055Z 20004KT 8SM CLR 23/14 A2991 RMK AO2 SLP135 T02330144
KCMA 172355Z 28008KT 9SM CLR 26/14 A2992 RMK AO2 SLP139 T02560139 10306 20256 56013
KCMA 172255Z 22003KT 10SM CLR 26/13 A2992 RMK AO2 SLP140 T02610133
KCMA 172155Z 24007KT 10SM CLR 27/14 A2993 RMK AO2 SLP144 T02670144
KCMA 172055Z 22007KT 10SM CLR 27/15 A2996 RMK AO2 SLP152 T02670150 58012
KCMA 171955Z 23007KT 10SM CLR 29/08 A2998 RMK AO2 SLP159 T02890083